Time;durP1;ratioP1;P1;durP2;ratioP2;P2;SDS_P1;SDS_P2;PMS_P1;PMS_P2;Temp;Humidity;BMP_temperature;BMP_pressure;BME280_temperature;BME280_humidity;BME280_pressure;Samples;Min_cycle;Max_cycle;Signal;HPM_P1;HPM_P2
2024/02/05 00:02:51;;;;;;;1.13;0.60;;;23.80;56.40;;;;;;6152685;28;81180;-67
2024/02/05 00:05:52;;;;;;;1.17;0.70;;;23.80;56.60;;;;;;6148887;28;80748;-66
2024/02/05 00:08:52;;;;;;;0.95;0.80;;;23.80;56.20;;;;;;6146834;28;81195;-49
2024/02/05 00:11:53;;;;;;;1.00;0.80;;;23.80;56.70;;;;;;6151913;28;80458;-47
2024/02/05 00:14:53;;;;;;;1.90;0.80;;;23.80;56.30;;;;;;6143163;28;80511;-50
2024/02/05 00:17:54;;;;;;;1.08;0.70;;;23.80;56.30;;;;;;6153703;28;81540;-52
2024/02/05 00:20:54;;;;;;;1.13;0.70;;;23.80;56.20;;;;;;6148693;28;80054;-50
2024/02/05 00:23:55;;;;;;;0.90;0.63;;;23.80;56.10;;;;;;6149054;28;81995;-56
2024/02/05 00:26:55;;;;;;;0.90;0.68;;;23.80;55.80;;;;;;6154728;28;81882;-55
2024/02/05 00:29:56;;;;;;;1.23;0.80;;;23.80;55.70;;;;;;6154245;28;82219;-46
2024/02/05 00:32:56;;;;;;;1.27;0.70;;;23.70;55.50;;;;;;6145013;28;80809;-50
2024/02/05 00:35:57;;;;;;;0.85;0.63;;;23.70;55.50;;;;;;6155938;28;80527;-48
2024/02/05 00:38:57;;;;;;;0.82;0.65;;;23.70;55.30;;;;;;6141264;28;81773;-48
2024/02/05 00:41:58;;;;;;;0.47;0.47;;;23.70;56.00;;;;;;6155371;28;80233;-49
2024/02/05 00:44:58;;;;;;;2.00;0.90;;;23.70;55.30;;;;;;6133556;28;80201;-52
2024/02/05 00:47:59;;;;;;;1.17;0.93;;;23.70;55.30;;;;;;6151170;28;81898;-67
2024/02/05 00:50:59;;;;;;;0.80;0.63;;;23.70;55.20;;;;;;6153686;28;80275;-67
2024/02/05 00:54:00;;;;;;;1.95;0.95;;;23.70;55.30;;;;;;6153708;28;80350;-66
2024/02/05 00:57:00;;;;;;;1.30;0.80;;;23.70;55.10;;;;;;6142351;28;81355;-65
2024/02/05 01:00:01;;;;;;;0.50;0.50;;;23.70;54.90;;;;;;6146525;28;80028;-63
2024/02/05 01:03:02;;;;;;;1.98;0.80;;;23.70;55.10;;;;;;6153781;28;80690;-66
2024/02/05 01:06:03;;;;;;;0.93;0.73;;;23.70;55.00;;;;;;6154069;28;80541;-64
2024/02/05 01:09:09;;;;;;;1.08;0.98;;;23.70;55.10;;;;;;6154101;28;81453;-65
2024/02/05 01:12:10;;;;;;;;;;;23.70;54.70;;;;;;6154024;28;81448;-65
2024/02/05 01:15:10;;;;;;;2.67;0.70;;;23.70;54.60;;;;;;6159965;28;79003;-66
2024/02/05 01:18:11;;;;;;;0.90;0.65;;;23.70;54.40;;;;;;6146333;28;81883;-67
2024/02/05 01:21:12;;;;;;;1.05;0.70;;;23.70;54.30;;;;;;6153450;28;80587;-67
2024/02/05 01:24:13;;;;;;;1.33;0.60;;;23.70;54.30;;;;;;6153640;28;80672;-59
2024/02/05 01:27:13;;;;;;;1.52;0.88;;;23.70;54.20;;;;;;6153322;28;80451;-59
2024/02/05 01:30:14;;;;;;;1.15;0.88;;;23.70;54.30;;;;;;6151689;28;80642;-59
2024/02/05 01:33:14;;;;;;;1.80;1.10;;;23.70;54.20;;;;;;6146328;28;81048;-58
2024/02/05 01:36:15;;;;;;;0.82;0.77;;;23.70;54.30;;;;;;6152041;28;80815;-60
2024/02/05 01:39:15;;;;;;;2.25;0.70;;;23.70;54.60;;;;;;6151426;28;80382;-62
2024/02/05 01:42:16;;;;;;;1.15;0.70;;;23.70;54.10;;;;;;6147968;28;81196;-51
2024/02/05 01:45:16;;;;;;;2.13;0.70;;;23.70;54.00;;;;;;6127233;28;80634;-55
2024/02/05 01:48:17;;;;;;;1.13;0.77;;;23.70;54.10;;;;;;6151735;28;80873;-51
2024/02/05 01:51:17;;;;;;;1.25;0.60;;;23.70;54.20;;;;;;6150248;28;86036;-52
2024/02/05 01:54:18;;;;;;;0.90;0.68;;;23.60;54.20;;;;;;6158313;28;80433;-56
2024/02/05 01:57:18;;;;;;;0.98;0.70;;;23.70;54.00;;;;;;6154988;28;81872;-52
2024/02/05 02:00:19;;;;;;;1.77;1.08;;;23.70;54.00;;;;;;6128886;28;80688;-50
2024/02/05 02:03:20;;;;;;;0.57;0.50;;;23.70;54.30;;;;;;6152033;28;80448;-51
2024/02/05 02:06:20;;;;;;;0.90;0.60;;;23.60;54.10;;;;;;6152460;28;80411;-52
2024/02/05 02:09:20;;;;;;;0.85;0.63;;;23.60;53.80;;;;;;6147374;28;81137;-50
2024/02/05 02:12:21;;;;;;;0.60;0.60;;;23.60;53.70;;;;;;6149336;28;80350;-50
2024/02/05 02:15:21;;;;;;;1.02;0.70;;;23.60;53.80;;;;;;6142900;28;80903;-55
2024/02/05 02:18:22;;;;;;;0.70;0.50;;;23.60;53.30;;;;;;6153175;28;80841;-53
2024/02/05 02:21:22;;;;;;;0.82;0.50;;;23.60;53.20;;;;;;6152762;28;80818;-56
2024/02/05 02:24:23;;;;;;;1.48;0.63;;;23.60;52.90;;;;;;6142997;28;80781;-53
2024/02/05 02:27:23;;;;;;;1.13;0.80;;;23.70;52.90;;;;;;6152876;28;80402;-53
2024/02/05 02:30:24;;;;;;;1.60;0.88;;;23.60;53.30;;;;;;6143784;28;82076;-55
2024/02/05 02:33:24;;;;;;;0.65;0.55;;;23.70;53.40;;;;;;6150761;28;81159;-53
2024/02/05 02:36:25;;;;;;;0.70;0.50;;;23.60;53.30;;;;;;6151713;28;80557;-59
2024/02/05 02:39:25;;;;;;;0.95;0.55;;;23.70;53.20;;;;;;6123935;28;80419;-59
2024/02/05 02:42:26;;;;;;;2.67;0.80;;;23.70;53.10;;;;;;6131450;28;81005;-59
2024/02/05 02:45:26;;;;;;;3.92;0.60;;;23.70;52.80;;;;;;6145541;28;80705;-57
2024/02/05 02:48:28;;;;;;;0.70;0.55;;;23.60;52.70;;;;;;6151379;28;80932;-58
2024/02/05 02:51:28;;;;;;;0.88;0.60;;;23.70;52.80;;;;;;6149759;28;80347;-60
2024/02/05 02:54:29;;;;;;;0.57;0.52;;;23.60;52.90;;;;;;6149309;28;81010;-67
2024/02/05 02:57:29;;;;;;;2.90;0.60;;;23.60;52.70;;;;;;6141822;28;80804;-66
2024/02/05 03:00:30;;;;;;;0.77;0.50;;;23.60;52.60;;;;;;6152519;28;82390;-68
2024/02/05 03:03:30;;;;;;;0.60;0.50;;;23.70;52.50;;;;;;6151513;28;81818;-68
2024/02/05 03:06:31;;;;;;;0.55;0.55;;;23.60;52.70;;;;;;6151966;28;80864;-67
2024/02/05 03:09:32;;;;;;;0.57;0.40;;;23.60;52.10;;;;;;6136192;28;80454;-68
2024/02/05 03:12:32;;;;;;;0.65;0.43;;;23.60;52.10;;;;;;6149455;28;81184;-68
2024/02/05 03:15:33;;;;;;;0.73;0.70;;;23.60;52.00;;;;;;6142690;28;82120;-67
2024/02/05 03:18:34;;;;;;;1.02;0.60;;;23.60;52.00;;;;;;6156688;28;81115;-66
2024/02/05 03:21:34;;;;;;;0.57;0.40;;;23.60;51.40;;;;;;6155487;28;80387;-65
2024/02/05 03:24:35;;;;;;;0.40;0.40;;;23.60;51.60;;;;;;6156314;28;82809;-67
2024/02/05 03:27:35;;;;;;;0.90;0.50;;;23.60;52.30;;;;;;6155477;28;80222;-66
2024/02/05 03:30:36;;;;;;;0.50;0.50;;;23.70;52.20;;;;;;6150767;28;81049;-67
2024/02/05 03:33:36;;;;;;;0.43;0.43;;;23.60;52.20;;;;;;6151256;28;80808;-66
2024/02/05 03:36:37;;;;;;;1.27;0.50;;;23.60;52.10;;;;;;6147437;28;80927;-68
2024/02/05 03:39:37;;;;;;;1.02;0.50;;;23.60;52.00;;;;;;6141205;28;81276;-66
2024/02/05 03:42:38;;;;;;;0.50;0.50;;;23.60;52.10;;;;;;6154152;28;80402;-66
2024/02/05 03:45:38;;;;;;;0.88;0.40;;;23.60;52.10;;;;;;6154108;28;80637;-64
2024/02/05 03:48:39;;;;;;;0.57;0.50;;;23.60;52.00;;;;;;6150818;28;80407;-66
2024/02/05 03:51:39;;;;;;;0.57;0.57;;;23.60;52.00;;;;;;6154556;28;80531;-60
2024/02/05 03:54:41;;;;;;;0.75;0.60;;;23.60;51.90;;;;;;6155097;28;80542;-62
2024/02/05 03:57:42;;;;;;;0.50;0.50;;;23.60;51.70;;;;;;6155213;28;80731;-61
2024/02/05 04:00:42;;;;;;;0.75;0.57;;;23.70;51.90;;;;;;6152168;28;81692;-61
2024/02/05 04:03:43;;;;;;;0.50;0.50;;;23.60;51.50;;;;;;6155167;28;80676;-60
2024/02/05 04:06:44;;;;;;;0.98;0.40;;;23.70;51.40;;;;;;6143623;28;80310;-61
2024/02/05 04:09:44;;;;;;;0.47;0.47;;;23.70;51.40;;;;;;6155385;28;80779;-62
2024/02/05 04:12:45;;;;;;;0.45;0.45;;;23.70;51.60;;;;;;6150852;28;81190;-68
2024/02/05 04:15:45;;;;;;;1.00;0.50;;;23.70;51.30;;;;;;6151720;28;80590;-64
2024/02/05 04:18:46;;;;;;;0.90;0.40;;;23.60;51.80;;;;;;6149730;28;81171;-69
2024/02/05 04:21:46;;;;;;;0.40;0.40;;;23.60;50.70;;;;;;6165858;28;80441;-66
2024/02/05 04:24:47;;;;;;;1.40;0.50;;;23.60;50.90;;;;;;6166565;28;80926;-63
2024/02/05 04:27:47;;;;;;;0.90;0.50;;;23.60;50.60;;;;;;6152181;28;80622;-67
2024/02/05 04:30:50;;;;;;;0.38;0.38;;;23.60;50.10;;;;;;6148482;28;80315;-69
2024/02/05 04:33:50;;;;;;;0.70;0.50;;;23.60;50.20;;;;;;6155531;28;80940;-66
2024/02/05 04:36:52;;;;;;;0.47;0.47;;;23.60;50.10;;;;;;6150503;28;81967;-65
2024/02/05 04:39:54;;;;;;;0.90;0.77;;;23.70;49.70;;;;;;6154729;28;81309;-66
2024/02/05 04:42:54;;;;;;;0.65;0.57;;;23.70;49.60;;;;;;6151264;28;80428;-67
2024/02/05 04:45:55;;;;;;;0.40;0.40;;;23.70;49.40;;;;;;6145794;28;80631;-71
2024/02/05 04:48:55;;;;;;;0.68;0.40;;;23.70;49.50;;;;;;6143713;28;81615;-69
2024/02/05 04:51:58;;;;;;;0.52;0.52;;;23.70;49.40;;;;;;6154816;28;83128;-63
2024/02/05 04:54:59;;;;;;;0.95;0.35;;;23.80;49.50;;;;;;6153405;28;80660;-65
2024/02/05 04:57:59;;;;;;;0.50;0.50;;;23.80;49.50;;;;;;6153030;28;80709;-63
2024/02/05 05:01:00;;;;;;;0.63;0.60;;;23.80;49.60;;;;;;6151962;28;81187;-66
2024/02/05 05:04:00;;;;;;;2.08;0.98;;;23.80;49.60;;;;;;6141978;28;80805;-69
2024/02/05 05:07:01;;;;;;;3.25;1.20;;;23.90;49.80;;;;;;6145620;28;83309;-66
2024/02/05 05:10:01;;;;;;;2.17;1.20;;;23.90;49.70;;;;;;6153054;28;80445;-67
2024/02/05 05:13:03;;;;;;;3.15;1.50;;;23.90;49.60;;;;;;6145003;28;86430;-64
2024/02/05 05:16:03;;;;;;;3.40;2.00;;;23.90;49.70;;;;;;6149046;28;81674;-60
2024/02/05 05:19:04;;;;;;;1.30;1.05;;;23.90;49.80;;;;;;6149388;28;81074;-62
2024/02/05 05:22:04;;;;;;;3.17;1.23;;;23.90;50.00;;;;;;6151856;28;80795;-51
2024/02/05 05:25:05;;;;;;;1.83;1.20;;;23.90;50.60;;;;;;6139619;28;84292;-53
2024/02/05 05:28:07;;;;;;;2.08;1.13;;;24.00;50.90;;;;;;6150891;28;80500;-49
2024/02/05 05:31:08;;;;;;;3.47;1.23;;;24.00;50.70;;;;;;6155458;28;81094;-60
2024/02/05 05:34:09;;;;;;;2.35;1.20;;;24.00;50.50;;;;;;6159360;28;80793;-56
2024/02/05 05:37:09;;;;;;;3.38;1.10;;;24.00;50.60;;;;;;6150203;28;80739;-52
2024/02/05 05:40:10;;;;;;;2.60;0.90;;;24.00;50.40;;;;;;6149347;28;80854;-65
2024/02/05 05:43:10;;;;;;;4.78;0.85;;;24.00;50.60;;;;;;6151890;28;80202;-68
2024/02/05 05:46:11;;;;;;;1.45;0.93;;;24.00;50.80;;;;;;6150924;28;80595;-66
2024/02/05 05:49:11;;;;;;;1.60;0.98;;;24.00;51.30;;;;;;6149997;28;80942;-66
2024/02/05 05:52:12;;;;;;;2.30;1.20;;;24.00;51.20;;;;;;6150053;28;80913;-69
2024/02/05 05:55:12;;;;;;;2.58;1.35;;;24.00;51.50;;;;;;6150061;28;81155;-65
2024/02/05 05:58:13;;;;;;;2.00;1.00;;;24.00;51.70;;;;;;6145827;28;81390;-68
2024/02/05 06:01:13;;;;;;;2.28;0.80;;;24.00;52.10;;;;;;6144080;28;81119;-61
2024/02/05 06:04:14;;;;;;;2.15;1.02;;;24.00;52.10;;;;;;6149876;28;80907;-71
2024/02/05 06:07:15;;;;;;;1.85;1.05;;;24.00;51.90;;;;;;6151572;28;80928;-65
2024/02/05 06:10:15;;;;;;;0.85;0.75;;;24.10;51.90;;;;;;6153042;28;80475;-65
2024/02/05 06:13:16;;;;;;;2.60;0.80;;;24.00;51.70;;;;;;6153227;28;80399;-64
2024/02/05 06:16:17;;;;;;;1.33;0.85;;;24.00;51.70;;;;;;6151510;28;81217;-66
2024/02/05 06:19:18;;;;;;;15.38;0.90;;;24.00;51.60;;;;;;6153003;28;80351;-67
2024/02/05 06:22:18;;;;;;;1.95;1.27;;;24.00;51.70;;;;;;6138958;28;80646;-68
2024/02/05 06:25:19;;;;;;;4.35;0.90;;;24.00;51.60;;;;;;6150500;28;80453;-68
2024/02/05 06:28:19;;;;;;;2.38;0.80;;;24.00;51.90;;;;;;6152161;28;81223;-67
2024/02/05 06:31:20;;;;;;;5.40;0.90;;;24.00;51.20;;;;;;6143986;28;80715;-67
2024/02/05 06:34:20;;;;;;;10.63;1.13;;;24.00;51.20;;;;;;6151554;28;80455;-52
2024/02/05 06:37:21;;;;;;;1.27;0.68;;;24.00;51.20;;;;;;6144853;28;80378;-53
2024/02/05 06:40:22;;;;;;;5.97;0.85;;;23.90;51.00;;;;;;6142841;28;80812;-53
2024/02/05 06:43:23;;;;;;;1.73;0.80;;;23.90;51.20;;;;;;6149878;28;81596;-52
2024/02/05 06:46:23;;;;;;;1.95;0.80;;;23.90;51.00;;;;;;6146748;28;81023;-49
2024/02/05 06:49:24;;;;;;;3.33;0.70;;;23.80;51.00;;;;;;6138770;28;80419;-52
2024/02/05 06:52:24;;;;;;;1.35;0.68;;;23.80;50.90;;;;;;6142944;28;82800;-55
2024/02/05 06:55:25;;;;;;;1.75;0.77;;;23.80;50.80;;;;;;6134690;28;82215;-55
2024/02/05 06:58:25;;;;;;;2.13;0.70;;;23.80;50.90;;;;;;6144125;28;85688;-55
2024/02/05 07:01:26;;;;;;;1.63;0.80;;;23.80;50.90;;;;;;6125550;28;80928;-53
2024/02/05 07:04:26;;;;;;;1.55;0.80;;;23.80;51.20;;;;;;6138232;28;82985;-52
2024/02/05 07:07:27;;;;;;;1.40;0.90;;;23.80;51.10;;;;;;6143642;28;81715;-51
2024/02/05 07:10:27;;;;;;;1.00;0.50;;;23.80;51.00;;;;;;6138325;28;86572;-53
2024/02/05 07:13:28;;;;;;;1.40;0.70;;;23.80;50.90;;;;;;6168079;28;80294;-55
2024/02/05 07:16:28;;;;;;;0.95;0.80;;;23.80;50.90;;;;;;6155657;28;80809;-53
2024/02/05 07:19:29;;;;;;;0.70;0.60;;;23.80;50.80;;;;;;6137270;28;80507;-54
2024/02/05 07:22:29;;;;;;;0.80;0.60;;;23.80;50.70;;;;;;6147201;28;80443;-56
2024/02/05 07:25:30;;;;;;;1.30;0.82;;;23.80;50.70;;;;;;6148830;28;80685;-54
2024/02/05 07:28:30;;;;;;;1.30;0.50;;;23.80;50.70;;;;;;6148830;28;80516;-56
2024/02/05 07:31:31;;;;;;;1.00;0.80;;;23.70;50.80;;;;;;6140370;28;80915;-61
2024/02/05 07:34:31;;;;;;;1.30;0.60;;;23.70;50.70;;;;;;6148046;28;80438;-61
2024/02/05 07:37:33;;;;;;;1.70;0.80;;;23.70;50.70;;;;;;6150137;28;80792;-60
2024/02/05 07:40:34;;;;;;;1.52;0.63;;;23.70;50.70;;;;;;6147742;28;82579;-60
2024/02/05 07:43:34;;;;;;;0.80;0.55;;;23.70;50.70;;;;;;6140621;28;81274;-61
2024/02/05 07:46:35;;;;;;;0.88;0.75;;;23.70;50.50;;;;;;6142800;28;81352;-61
2024/02/05 07:49:35;;;;;;;1.27;1.00;;;23.70;50.50;;;;;;6147194;28;82604;-60
2024/02/05 07:52:36;;;;;;;3.28;1.00;;;23.70;50.50;;;;;;6137260;28;80239;-61
2024/02/05 07:55:39;;;;;;;1.08;0.82;;;23.70;50.40;;;;;;6143980;28;80843;-61
2024/02/05 07:58:40;;;;;;;0.90;0.68;;;23.70;50.40;;;;;;6150280;28;80456;-59
2024/02/05 08:01:40;;;;;;;1.23;0.70;;;23.70;51.20;;;;;;6150651;28;81467;-60
2024/02/05 08:04:41;;;;;;;1.63;0.75;;;23.70;51.80;;;;;;6148999;28;83564;-62
2024/02/05 08:07:43;;;;;;;0.80;0.60;;;23.60;52.30;;;;;;6152308;28;80650;-61
2024/02/05 08:10:44;;;;;;;1.52;0.85;;;23.70;52.50;;;;;;6141288;28;80295;-63
2024/02/05 08:13:44;;;;;;;0.70;0.70;;;23.60;52.90;;;;;;6151198;28;80778;-62
2024/02/05 08:16:45;;;;;;;1.08;0.80;;;23.70;53.10;;;;;;6152851;28;81354;-62
2024/02/05 08:19:46;;;;;;;2.20;0.80;;;23.60;53.30;;;;;;6158900;28;81122;-62
2024/02/05 08:22:46;;;;;;;1.35;0.73;;;23.70;53.50;;;;;;6157817;28;83557;-62
2024/02/05 08:25:47;;;;;;;2.58;0.70;;;23.70;53.70;;;;;;6154255;28;83358;-60
2024/02/05 08:28:47;;;;;;;0.90;0.80;;;23.70;53.50;;;;;;6135487;28;83432;-62
2024/02/05 08:31:48;;;;;;;0.85;0.80;;;23.70;53.80;;;;;;6152294;28;82979;-58
2024/02/05 08:34:48;;;;;;;1.42;0.93;;;23.70;54.50;;;;;;6165019;28;82668;-58
2024/02/05 08:37:49;;;;;;;1.63;1.00;;;23.40;54.00;;;;;;6162468;28;81456;-59
2024/02/05 08:40:49;;;;;;;3.55;1.15;;;23.20;52.70;;;;;;6154387;28;80512;-59
2024/02/05 08:43:50;;;;;;;2.45;1.30;;;23.10;51.20;;;;;;6139215;28;82752;-59
2024/02/05 08:46:50;;;;;;;2.63;1.45;;;23.00;51.00;;;;;;6153826;28;81619;-58
2024/02/05 08:49:52;;;;;;;1.50;1.25;;;22.80;50.80;;;;;;6155448;28;80478;-59
2024/02/05 08:52:53;;;;;;;2.78;1.35;;;22.70;51.00;;;;;;6162950;28;82009;-60
2024/02/05 08:55:53;;;;;;;4.70;1.50;;;22.60;51.00;;;;;;6165124;28;80562;-58
2024/02/05 08:58:54;;;;;;;2.55;1.23;;;22.60;51.60;;;;;;6151232;28;80634;-56
2024/02/05 09:01:54;;;;;;;1.65;1.02;;;22.40;50.40;;;;;;6167399;28;80868;-59
2024/02/05 09:04:55;;;;;;;2.08;1.30;;;22.20;50.00;;;;;;6155986;28;80434;-60
2024/02/05 09:07:55;;;;;;;0.93;0.75;;;22.00;50.20;;;;;;6152267;28;83057;-60
2024/02/05 09:10:56;;;;;;;1.05;0.70;;;22.00;50.30;;;;;;6152202;28;83406;-58
2024/02/05 09:13:56;;;;;;;1.10;0.80;;;22.00;50.30;;;;;;6159429;28;80488;-58
2024/02/05 09:16:57;;;;;;;0.82;0.65;;;21.80;50.30;;;;;;6150916;28;83539;-57
2024/02/05 09:19:57;;;;;;;2.17;0.73;;;21.70;50.20;;;;;;6167600;28;81736;-57
2024/02/05 09:22:58;;;;;;;2.65;0.60;;;21.60;50.70;;;;;;6158595;28;81037;-57
2024/02/05 09:25:58;;;;;;;0.77;0.70;;;21.70;50.90;;;;;;6152053;28;83196;-57
2024/02/05 09:28:59;;;;;;;2.03;0.70;;;21.70;50.80;;;;;;6161562;28;80866;-58
2024/02/05 09:31:59;;;;;;;1.95;1.02;;;21.70;51.10;;;;;;6153866;28;81152;-57
2024/02/05 09:35:00;;;;;;;0.55;0.50;;;21.70;50.70;;;;;;6146968;28;80533;-59
2024/02/05 09:38:00;;;;;;;1.23;0.80;;;21.70;50.90;;;;;;6139919;28;83042;-60
2024/02/05 09:41:01;;;;;;;1.83;1.00;;;21.70;50.70;;;;;;6153181;28;83356;-59
2024/02/05 09:44:01;;;;;;;1.65;0.90;;;21.70;51.00;;;;;;6149947;28;80614;-59
2024/02/05 09:47:02;;;;;;;1.23;0.82;;;21.70;50.70;;;;;;6148053;28;80509;-58
2024/02/05 09:50:03;;;;;;;2.53;1.13;;;21.80;51.00;;;;;;6155813;28;81390;-58
2024/02/05 09:53:04;;;;;;;2.63;1.27;;;21.80;50.90;;;;;;6158621;28;82144;-58
2024/02/05 09:56:04;;;;;;;1.90;1.20;;;21.80;51.60;;;;;;6157723;28;81786;-59
2024/02/05 09:59:05;;;;;;;1.10;1.00;;;21.90;51.20;;;;;;6149845;28;82113;-59
2024/02/05 10:02:06;;;;;;;3.05;1.30;;;21.90;51.70;;;;;;6146877;28;80571;-59
2024/02/05 10:05:07;;;;;;;2.05;1.10;;;21.90;51.80;;;;;;6148090;28;81208;-61
2024/02/05 10:08:07;;;;;;;2.55;1.17;;;22.00;51.40;;;;;;6148038;28;83980;-59
2024/02/05 10:11:08;;;;;;;4.80;1.38;;;21.90;52.20;;;;;;6150968;28;83127;-59
2024/02/05 10:14:08;;;;;;;1.95;1.40;;;22.00;52.00;;;;;;6154242;28;80466;-59
2024/02/05 10:17:09;;;;;;;1.30;1.20;;;22.10;51.70;;;;;;6147429;28;80418;-51
2024/02/05 10:20:12;;;;;;;2.42;1.45;;;22.00;51.70;;;;;;6149485;28;80409;-50
2024/02/05 10:23:13;;;;;;;1.92;1.15;;;22.10;52.00;;;;;;6149566;28;80462;-53
2024/02/05 10:26:13;;;;;;;1.70;1.10;;;22.10;52.20;;;;;;6150825;28;80530;-50
2024/02/05 10:29:14;;;;;;;2.13;1.30;;;22.20;52.60;;;;;;6150562;28;80912;-51
2024/02/05 10:32:15;;;;;;;2.13;1.15;;;22.20;52.60;;;;;;6150232;28;80532;-54
2024/02/05 10:35:16;;;;;;;2.00;1.30;;;22.20;52.50;;;;;;6146763;28;80869;-50
2024/02/05 10:38:19;;;;;;;2.15;1.42;;;22.20;52.60;;;;;;6152170;28;83552;-52
2024/02/05 10:41:20;;;;;;;2.00;1.30;;;22.20;52.50;;;;;;6169420;28;85069;-52
2024/02/05 10:44:20;;;;;;;2.35;1.83;;;22.20;52.90;;;;;;6149369;28;81068;-50
2024/02/05 10:47:21;;;;;;;1.75;1.05;;;22.20;52.90;;;;;;6153458;28;84144;-52
2024/02/05 10:50:22;;;;;;;1.52;0.95;;;22.20;52.70;;;;;;6151312;28;80678;-54
2024/02/05 10:53:23;;;;;;;1.33;1.02;;;22.20;52.80;;;;;;6175878;28;81735;-58
2024/02/05 10:56:23;;;;;;;2.08;1.13;;;22.20;52.70;;;;;;6149060;28;81249;-59
2024/02/05 10:59:24;;;;;;;2.13;1.20;;;22.20;52.70;;;;;;6150489;28;80499;-60
2024/02/05 11:02:24;;;;;;;1.63;1.02;;;22.20;52.60;;;;;;6153817;28;82828;-58
2024/02/05 11:05:25;;;;;;;1.60;1.08;;;22.20;52.60;;;;;;6156151;28;82421;-58
2024/02/05 11:08:26;;;;;;;1.77;1.20;;;22.20;52.70;;;;;;6150786;28;80434;-59
2024/02/05 11:11:26;;;;;;;1.42;1.00;;;22.20;52.60;;;;;;6145932;28;83471;-57
2024/02/05 11:14:26;;;;;;;1.20;1.10;;;22.20;52.40;;;;;;6154067;28;80419;-59
2024/02/05 11:17:28;;;;;;;1.70;1.10;;;22.20;52.10;;;;;;6148561;28;82009;-59
2024/02/05 11:20:28;;;;;;;2.90;1.27;;;22.20;52.20;;;;;;6156801;28;81771;-59
2024/02/05 11:23:29;;;;;;;1.70;1.20;;;22.20;52.20;;;;;;6149748;28;83806;-60
2024/02/05 11:26:29;;;;;;;1.42;1.05;;;22.20;52.20;;;;;;6149852;28;80754;-59
2024/02/05 11:29:31;;;;;;;1.63;1.33;;;22.20;52.00;;;;;;6151120;28;80556;-54
2024/02/05 11:32:31;;;;;;;1.38;0.90;;;22.20;52.20;;;;;;6149857;28;80594;-54
2024/02/05 11:35:32;;;;;;;1.75;0.93;;;22.20;51.90;;;;;;6152190;28;80981;-52
2024/02/05 11:38:33;;;;;;;4.55;1.25;;;22.20;52.10;;;;;;6152014;28;80747;-54
2024/02/05 11:41:33;;;;;;;2.47;1.30;;;22.20;51.90;;;;;;6153902;28;81102;-53
2024/02/05 11:44:34;;;;;;;1.48;1.10;;;22.20;51.70;;;;;;6153610;28;81803;-52
2024/02/05 11:47:34;;;;;;;2.65;1.23;;;22.20;51.80;;;;;;6146932;28;81180;-58
2024/02/05 11:50:35;;;;;;;1.55;1.10;;;22.10;51.60;;;;;;6153488;28;80431;-57
2024/02/05 11:53:36;;;;;;;1.67;1.00;;;22.10;51.50;;;;;;6154407;28;80406;-58
2024/02/05 11:56:36;;;;;;;1.92;0.90;;;22.10;51.70;;;;;;6152133;28;83533;-58
2024/02/05 11:59:37;;;;;;;2.10;1.33;;;22.10;51.50;;;;;;6138865;28;80848;-59
2024/02/05 12:02:38;;;;;;;1.48;0.98;;;22.10;51.50;;;;;;6143919;28;81811;-60
2024/02/05 12:05:38;;;;;;;2.55;1.10;;;22.10;51.50;;;;;;6153699;28;81219;-59
2024/02/05 12:08:39;;;;;;;1.63;1.20;;;22.10;51.70;;;;;;6147930;28;84796;-59
2024/02/05 12:11:39;;;;;;;1.80;0.90;;;22.10;51.50;;;;;;6144480;28;80330;-58
2024/02/05 12:14:40;;;;;;;1.98;0.90;;;22.10;51.50;;;;;;6149848;28;80216;-58
2024/02/05 12:17:40;;;;;;;1.30;1.10;;;22.20;51.30;;;;;;6152128;28;81791;-59
2024/02/05 12:20:41;;;;;;;4.10;1.50;;;22.20;51.10;;;;;;6150198;28;80448;-58
2024/02/05 12:23:41;;;;;;;3.08;1.50;;;22.30;51.20;;;;;;6152905;28;80781;-53
2024/02/05 12:26:42;;;;;;;3.42;1.30;;;22.40;51.30;;;;;;6144908;28;80359;-53
2024/02/05 12:29:42;;;;;;;1.95;1.20;;;22.40;51.10;;;;;;6150390;28;81469;-55
2024/02/05 12:32:44;;;;;;;4.50;1.20;;;22.50;51.30;;;;;;6153510;28;82508;-55
2024/02/05 12:35:46;;;;;;;2.00;1.20;;;22.60;51.30;;;;;;6144370;28;80152;-54
2024/02/05 12:38:47;;;;;;;1.30;1.10;;;22.60;51.30;;;;;;6153611;28;81314;-53
2024/02/05 12:41:47;;;;;;;5.70;1.42;;;22.60;51.20;;;;;;6153450;28;80687;-60
2024/02/05 12:44:50;;;;;;;1.40;1.20;;;22.70;51.30;;;;;;6152354;28;83672;-60
2024/02/05 12:47:51;;;;;;;1.75;1.10;;;22.70;51.40;;;;;;6148609;28;81049;-61
2024/02/05 12:50:52;;;;;;;1.83;1.13;;;22.70;51.60;;;;;;6152727;28;80688;-60
2024/02/05 12:53:52;;;;;;;2.80;1.20;;;22.70;51.40;;;;;;6152493;28;80216;-62
2024/02/05 12:56:53;;;;;;;3.60;1.58;;;22.70;51.30;;;;;;6153908;28;82153;-62
2024/02/05 12:59:53;;;;;;;2.22;1.25;;;22.80;51.50;;;;;;6153194;28;80815;-61
2024/02/05 13:02:54;;;;;;;3.47;1.38;;;22.80;51.20;;;;;;6153024;28;84324;-59
2024/02/05 13:05:54;;;;;;;2.83;1.20;;;22.80;51.30;;;;;;6146474;28;83122;-58
2024/02/05 13:08:55;;;;;;;5.10;1.40;;;22.80;51.50;;;;;;6150237;28;80570;-58
2024/02/05 13:11:55;;;;;;;1.98;1.08;;;22.90;51.40;;;;;;6145732;28;80633;-58
2024/02/05 13:14:56;;;;;;;1.50;1.00;;;22.80;51.40;;;;;;6153058;28;80829;-58
2024/02/05 13:17:56;;;;;;;1.98;1.10;;;22.90;51.40;;;;;;6151772;28;80560;-59
2024/02/05 13:20:57;;;;;;;2.40;1.15;;;22.90;51.10;;;;;;6139626;28;80712;-60
2024/02/05 13:23:57;;;;;;;4.78;1.38;;;22.90;51.00;;;;;;6142678;28;81001;-61
2024/02/05 13:26:58;;;;;;;1.40;1.00;;;23.00;50.90;;;;;;6150071;28;82356;-61
2024/02/05 13:29:58;;;;;;;2.78;1.27;;;23.00;50.90;;;;;;6143875;28;80457;-61
2024/02/05 13:32:59;;;;;;;3.08;1.60;;;23.00;50.80;;;;;;6149512;28;80355;-61
2024/02/05 13:36:00;;;;;;;1.88;1.17;;;23.00;50.80;;;;;;6150853;28;80457;-63
2024/02/05 13:39:05;;;;;;;2.00;1.17;;;23.10;50.80;;;;;;6150183;28;81025;-66
2024/02/05 13:42:07;;;;;;;2.17;1.30;;;23.10;50.80;;;;;;6152426;28;80318;-68
2024/02/05 13:45:08;;;;;;;1.73;1.10;;;23.10;50.80;;;;;;6147600;28;81581;-68
2024/02/05 13:48:08;;;;;;;2.97;1.25;;;23.20;50.80;;;;;;6152323;28;80534;-67
2024/02/05 13:51:09;;;;;;;2.70;1.50;;;23.20;50.80;;;;;;6140000;28;80788;-66
2024/02/05 13:54:09;;;;;;;1.92;1.40;;;23.20;50.80;;;;;;6137306;28;83690;-66
2024/02/05 13:57:10;;;;;;;2.65;1.38;;;23.20;50.80;;;;;;6148322;28;82991;-61
2024/02/05 14:00:10;;;;;;;2.38;1.55;;;23.20;50.80;;;;;;6151823;28;80522;-61
2024/02/05 14:03:14;;;;;;;3.50;1.40;;;23.30;50.80;;;;;;6146890;28;82692;-62
2024/02/05 14:06:15;;;;;;;2.10;1.25;;;23.30;50.80;;;;;;6145374;28;80564;-61
2024/02/05 14:09:16;;;;;;;1.83;1.17;;;23.30;50.70;;;;;;6135553;28;80456;-62
2024/02/05 14:12:16;;;;;;;2.15;1.17;;;23.30;50.70;;;;;;6150496;28;80382;-61
2024/02/05 14:15:17;;;;;;;3.60;1.75;;;23.30;50.70;;;;;;6152506;28;80108;-62
2024/02/05 14:18:17;;;;;;;2.63;1.08;;;23.30;50.70;;;;;;6152468;28;81798;-62
2024/02/05 14:21:20;;;;;;;2.33;1.15;;;23.30;50.70;;;;;;6150691;28;80256;-62
2024/02/05 14:24:22;;;;;;;1.88;1.25;;;23.30;50.70;;;;;;6146173;28;82346;-62
2024/02/05 14:27:23;;;;;;;4.32;1.40;;;23.30;50.60;;;;;;6140658;28;81286;-62
2024/02/05 14:30:23;;;;;;;2.60;1.40;;;23.40;50.70;;;;;;6144735;28;82089;-62
2024/02/05 14:33:24;;;;;;;2.67;1.35;;;23.40;50.70;;;;;;6148843;28;80703;-62
2024/02/05 14:36:24;;;;;;;1.55;1.20;;;23.40;50.60;;;;;;6150681;28;82075;-62
2024/02/05 14:39:25;;;;;;;3.70;1.40;;;23.40;50.60;;;;;;6148981;28;81181;-62
2024/02/05 14:42:25;;;;;;;2.17;1.23;;;23.40;50.50;;;;;;6151398;28;80676;-62
2024/02/05 14:45:26;;;;;;;3.33;1.20;;;23.40;50.50;;;;;;6147425;28;80313;-61
2024/02/05 14:48:27;;;;;;;1.48;1.10;;;23.40;50.40;;;;;;6137829;28;80993;-56
2024/02/05 14:51:29;;;;;;;1.65;1.25;;;23.40;50.40;;;;;;6150953;28;82366;-60
2024/02/05 14:54:30;;;;;;;3.22;1.48;;;23.50;50.50;;;;;;6149012;28;80314;-61
2024/02/05 14:57:30;;;;;;;2.03;1.38;;;23.40;50.50;;;;;;6136276;28;81879;-61
2024/02/05 15:00:31;;;;;;;3.42;1.33;;;23.40;50.40;;;;;;6150061;28;80686;-64
2024/02/05 15:03:31;;;;;;;2.13;1.15;;;23.50;50.50;;;;;;6148051;28;82927;-58
2024/02/05 15:06:32;;;;;;;2.90;1.25;;;23.40;50.40;;;;;;6148436;28;80638;-62
2024/02/05 15:09:32;;;;;;;6.03;2.08;;;23.50;50.90;;;;;;6155548;28;80919;-60
2024/02/05 15:12:33;;;;;;;7.05;2.30;;;23.50;51.40;;;;;;6156395;28;81173;-62
2024/02/05 15:15:34;;;;;;;6.43;1.80;;;23.50;51.20;;;;;;6155983;28;80253;-63
2024/02/05 15:18:34;;;;;;;7.22;1.25;;;23.50;51.30;;;;;;6148928;28;81779;-61
2024/02/05 15:21:35;;;;;;;4.55;1.50;;;23.50;50.90;;;;;;6149190;28;83003;-61
2024/02/05 15:24:35;;;;;;;2.45;1.52;;;23.50;50.90;;;;;;6155340;28;80760;-60
2024/02/05 15:27:36;;;;;;;3.78;1.35;;;23.50;50.90;;;;;;6153119;28;80174;-66
2024/02/05 15:30:37;;;;;;;3.42;1.58;;;23.60;51.00;;;;;;6143206;28;80525;-61
2024/02/05 15:33:37;;;;;;;3.55;1.70;;;23.60;51.50;;;;;;6130320;28;83220;-65
2024/02/05 15:36:38;;;;;;;3.72;1.50;;;23.60;51.90;;;;;;6155249;28;80628;-67
2024/02/05 15:39:39;;;;;;;5.85;2.30;;;23.60;52.10;;;;;;6155716;28;80323;-64
2024/02/05 15:42:39;;;;;;;3.20;1.63;;;23.60;52.40;;;;;;6154791;28;80350;-65